Macarthur, Pennsylvania
Current Conditions -  °F | °C
As of 9:51 PM on Saturday 27 Dec 2014 (Local Time) from KPIT Reporting Station
Light Rain Light Rain  
Wind Chill: 53°   Ceiling: 3800
Heat Index: 53°   Visibility: 10mi
Dew Point: 30°   Wind: 5mph
Humidity: 41%   Direction: 220°SW
Pressure: 30.01"   Gusts: NA
Location:  40.5921°N, 80.3191°W
Report Text: KPIT 280251Z 22004KT 10SM -RA OVC038 12/M01 A3001 RMK AO2 RAB39 SLP175 P0000 60000 T01171011 58018
Loading
Personal Weather Stations






























Interactive Weather Map New forecast layout! Learn more

10-Day Weather Forecast

Advertisements
Track Severe Weather on mobile